sensor_id;sensor_type;location;lat;lon;timestamp;pressure;altitude;pressure_sealevel;temperature;humidity
77725;BME280;66892;53.236;6.550;2023-01-28T00:02:25;103173.03;;;1.91;76.77
77725;BME280;66892;53.236;6.550;2023-01-28T00:04:53;103181.94;;;1.82;78.83
77725;BME280;66892;53.236;6.550;2023-01-28T00:07:19;103176.28;;;1.76;79.26
77725;BME280;66892;53.236;6.550;2023-01-28T00:09:46;103163.03;;;1.73;79.74
77725;BME280;66892;53.236;6.550;2023-01-28T00:12:12;103157.72;;;1.71;81.20
77725;BME280;66892;53.236;6.550;2023-01-28T00:14:38;103158.53;;;1.70;79.21
77725;BME280;66892;53.236;6.550;2023-01-28T00:17:04;103159.25;;;1.81;80.77
77725;BME280;66892;53.236;6.550;2023-01-28T00:19:30;103156.13;;;1.73;79.80
77725;BME280;66892;53.236;6.550;2023-01-28T00:21:58;103162.13;;;1.72;78.92
77725;BME280;66892;53.236;6.550;2023-01-28T00:24:24;103159.53;;;1.72;78.64
77725;BME280;66892;53.236;6.550;2023-01-28T00:26:50;103166.34;;;1.70;78.40
77725;BME280;66892;53.236;6.550;2023-01-28T00:29:16;103156.56;;;1.79;78.72
77725;BME280;66892;53.236;6.550;2023-01-28T00:31:42;103155.84;;;1.82;78.81
77725;BME280;66892;53.236;6.550;2023-01-28T00:34:08;103153.03;;;1.79;77.95
77725;BME280;66892;53.236;6.550;2023-01-28T00:36:35;103140.25;;;1.95;74.85
77725;BME280;66892;53.236;6.550;2023-01-28T00:39:05;103144.34;;;1.91;75.41
77725;BME280;66892;53.236;6.550;2023-01-28T00:41:31;103148.22;;;1.85;76.40
77725;BME280;66892;53.236;6.550;2023-01-28T00:43:58;103143.81;;;1.84;76.79
77725;BME280;66892;53.236;6.550;2023-01-28T00:46:24;103143.53;;;1.92;76.14
77725;BME280;66892;53.236;6.550;2023-01-28T00:48:53;103137.59;;;1.82;76.54
77725;BME280;66892;53.236;6.550;2023-01-28T00:51:19;103141.81;;;1.93;75.69
77725;BME280;66892;53.236;6.550;2023-01-28T00:53:46;103136.00;;;1.97;74.76
77725;BME280;66892;53.236;6.550;2023-01-28T00:56:16;103136.19;;;1.87;75.43
77725;BME280;66892;53.236;6.550;2023-01-28T00:58:43;103144.28;;;1.78;76.45
77725;BME280;66892;53.236;6.550;2023-01-28T01:01:11;103140.47;;;1.73;78.38
77725;BME280;66892;53.236;6.550;2023-01-28T01:03:38;103148.19;;;1.72;78.51
77725;BME280;66892;53.236;6.550;2023-01-28T01:06:05;103147.97;;;1.69;80.32
77725;BME280;66892;53.236;6.550;2023-01-28T01:08:31;103150.41;;;1.79;77.44
77725;BME280;66892;53.236;6.550;2023-01-28T01:11:01;103147.47;;;1.74;77.68
77725;BME280;66892;53.236;6.550;2023-01-28T01:13:30;103146.28;;;1.69;78.90
77725;BME280;66892;53.236;6.550;2023-01-28T01:16:02;103151.38;;;1.68;80.68
77725;BME280;66892;53.236;6.550;2023-01-28T01:18:28;103159.19;;;1.68;79.42
77725;BME280;66892;53.236;6.550;2023-01-28T01:20:54;103153.19;;;1.69;80.66
77725;BME280;66892;53.236;6.550;2023-01-28T01:23:24;103152.19;;;1.67;78.62
77725;BME280;66892;53.236;6.550;2023-01-28T01:25:51;103151.97;;;1.64;76.84
77725;BME280;66892;53.236;6.550;2023-01-28T01:28:17;103166.03;;;1.66;78.72
77725;BME280;66892;53.236;6.550;2023-01-28T01:30:45;103161.72;;;1.66;78.46
77725;BME280;66892;53.236;6.550;2023-01-28T01:33:11;103158.28;;;1.67;77.40
77725;BME280;66892;53.236;6.550;2023-01-28T01:35:37;103156.78;;;1.71;79.19
77725;BME280;66892;53.236;6.550;2023-01-28T01:38:04;103155.91;;;1.70;79.82
77725;BME280;66892;53.236;6.550;2023-01-28T01:40:30;103152.50;;;1.71;81.17
77725;BME280;66892;53.236;6.550;2023-01-28T01:42:56;103160.09;;;1.68;81.90
77725;BME280;66892;53.236;6.550;2023-01-28T01:45:22;103155.91;;;1.70;82.50
77725;BME280;66892;53.236;6.550;2023-01-28T01:47:54;103151.59;;;1.71;81.81
77725;BME280;66892;53.236;6.550;2023-01-28T01:50:25;103151.78;;;1.74;80.71
77725;BME280;66892;53.236;6.550;2023-01-28T01:52:57;103149.09;;;1.72;80.10
77725;BME280;66892;53.236;6.550;2023-01-28T01:55:26;103161.34;;;1.73;81.23
77725;BME280;66892;53.236;6.550;2023-01-28T01:57:55;103163.63;;;1.69;82.14
77725;BME280;66892;53.236;6.550;2023-01-28T02:00:23;103167.03;;;1.68;82.33
77725;BME280;66892;53.236;6.550;2023-01-28T02:02:51;103160.00;;;1.67;81.32
77725;BME280;66892;53.236;6.550;2023-01-28T02:05:19;103163.94;;;1.73;81.56
77725;BME280;66892;53.236;6.550;2023-01-28T02:07:47;103166.78;;;1.76;81.21
77725;BME280;66892;53.236;6.550;2023-01-28T02:10:15;103167.06;;;1.81;80.97
77725;BME280;66892;53.236;6.550;2023-01-28T02:12:44;103173.56;;;1.74;80.76
77725;BME280;66892;53.236;6.550;2023-01-28T02:15:16;103177.66;;;1.71;81.52
77725;BME280;66892;53.236;6.550;2023-01-28T02:17:42;103169.84;;;1.71;79.70
77725;BME280;66892;53.236;6.550;2023-01-28T02:20:12;103168.84;;;1.69;77.96
77725;BME280;66892;53.236;6.550;2023-01-28T02:22:50;103151.59;;;1.71;79.87
77725;BME280;66892;53.236;6.550;2023-01-28T02:28:20;103154.31;;;1.72;81.74
77725;BME280;66892;53.236;6.550;2023-01-28T02:30:52;103153.19;;;1.69;82.05
77725;BME280;66892;53.236;6.550;2023-01-28T02:33:28;103151.28;;;1.66;81.80
77725;BME280;66892;53.236;6.550;2023-01-28T02:35:55;103151.16;;;1.65;83.23
77725;BME280;66892;53.236;6.550;2023-01-28T02:38:27;103158.91;;;1.63;82.41
77725;BME280;66892;53.236;6.550;2023-01-28T02:41:00;103157.28;;;1.65;81.63
77725;BME280;66892;53.236;6.550;2023-01-28T02:43:34;103148.69;;;1.66;79.97
77725;BME280;66892;53.236;6.550;2023-01-28T02:46:10;103155.00;;;1.70;78.47
77725;BME280;66892;53.236;6.550;2023-01-28T02:48:56;103149.66;;;1.68;82.63
77725;BME280;66892;53.236;6.550;2023-01-28T02:51:32;103146.16;;;1.68;82.78
77725;BME280;66892;53.236;6.550;2023-01-28T02:54:10;103141.56;;;1.64;82.06
77725;BME280;66892;53.236;6.550;2023-01-28T02:56:44;103142.22;;;1.61;82.40
77725;BME280;66892;53.236;6.550;2023-01-28T02:59:19;103144.94;;;1.63;81.92
77725;BME280;66892;53.236;6.550;2023-01-28T03:02:03;103145.84;;;1.63;82.66
77725;BME280;66892;53.236;6.550;2023-01-28T03:04:37;103142.34;;;1.63;82.30
77725;BME280;66892;53.236;6.550;2023-01-28T03:07:08;103138.81;;;1.62;82.53
77725;BME280;66892;53.236;6.550;2023-01-28T03:09:35;103145.84;;;1.63;82.77
77725;BME280;66892;53.236;6.550;2023-01-28T03:12:04;103131.22;;;1.65;82.57
77725;BME280;66892;53.236;6.550;2023-01-28T03:14:55;103135.63;;;1.66;80.98
77725;BME280;66892;53.236;6.550;2023-01-28T03:17:43;103131.22;;;1.65;81.63
77725;BME280;66892;53.236;6.550;2023-01-28T03:20:34;103125.28;;;1.68;80.71
77725;BME280;66892;53.236;6.550;2023-01-28T03:23:24;103135.06;;;1.70;81.90
77725;BME280;66892;53.236;6.550;2023-01-28T03:26:11;103135.34;;;1.75;81.88
77725;BME280;66892;53.236;6.550;2023-01-28T03:29:00;103151.69;;;1.72;82.01
77725;BME280;66892;53.236;6.550;2023-01-28T03:31:50;103134.16;;;1.70;81.78
77725;BME280;66892;53.236;6.550;2023-01-28T03:34:36;103142.19;;;1.73;80.08
77725;BME280;66892;53.236;6.550;2023-01-28T03:37:21;103138.53;;;1.71;80.68
77725;BME280;66892;53.236;6.550;2023-01-28T03:39:47;103145.50;;;1.70;82.52
77725;BME280;66892;53.236;6.550;2023-01-28T03:42:14;103148.97;;;1.71;80.92
77725;BME280;66892;53.236;6.550;2023-01-28T03:44:40;103162.13;;;1.72;79.04
77725;BME280;66892;53.236;6.550;2023-01-28T03:47:21;103167.34;;;1.72;78.99
77725;BME280;66892;53.236;6.550;2023-01-28T03:49:49;103166.66;;;1.75;77.75
77725;BME280;66892;53.236;6.550;2023-01-28T03:52:16;103157.84;;;1.73;77.71
77725;BME280;66892;53.236;6.550;2023-01-28T03:54:43;103153.53;;;1.73;79.46
77725;BME280;66892;53.236;6.550;2023-01-28T03:57:10;103157.72;;;1.71;79.36
77725;BME280;66892;53.236;6.550;2023-01-28T03:59:36;103154.09;;;1.69;79.85
77725;BME280;66892;53.236;6.550;2023-01-28T04:02:02;103155.44;;;1.76;78.32
77725;BME280;66892;53.236;6.550;2023-01-28T04:04:29;103154.53;;;1.75;78.26
77725;BME280;66892;53.236;6.550;2023-01-28T04:06:57;103160.53;;;1.74;78.50
77725;BME280;66892;53.236;6.550;2023-01-28T04:09:23;103156.72;;;1.69;79.49
77725;BME280;66892;53.236;6.550;2023-01-28T04:11:50;103150.38;;;1.66;79.62
77725;BME280;66892;53.236;6.550;2023-01-28T04:14:16;103149.78;;;1.70;80.38
77725;BME280;66892;53.236;6.550;2023-01-28T04:16:43;103149.78;;;1.70;79.34
77725;BME280;66892;53.236;6.550;2023-01-28T04:19:10;103143.88;;;1.72;79.39
77725;BME280;66892;53.236;6.550;2023-01-28T04:21:39;103136.84;;;1.71;79.42
77725;BME280;66892;53.236;6.550;2023-01-28T04:24:06;103135.94;;;1.71;79.55
77725;BME280;66892;53.236;6.550;2023-01-28T04:26:32;103127.22;;;1.70;78.79
77725;BME280;66892;53.236;6.550;2023-01-28T04:28:59;103127.22;;;1.70;78.47
77725;BME280;66892;53.236;6.550;2023-01-28T04:31:25;103125.69;;;1.61;77.92
77725;BME280;66892;53.236;6.550;2023-01-28T04:33:51;103124.78;;;1.60;78.91
77725;BME280;66892;53.236;6.550;2023-01-28T04:36:17;103129.88;;;1.58;78.93
77725;BME280;66892;53.236;6.550;2023-01-28T04:38:44;103126.97;;;1.54;78.84
77725;BME280;66892;53.236;6.550;2023-01-28T04:41:10;103127.84;;;1.54;79.17
77725;BME280;66892;53.236;6.550;2023-01-28T04:43:36;103138.88;;;1.50;80.63
77725;BME280;66892;53.236;6.550;2023-01-28T04:46:02;103140.09;;;1.55;78.35
77725;BME280;66892;53.236;6.550;2023-01-28T04:48:28;103139.88;;;1.52;79.21
77725;BME280;66892;53.236;6.550;2023-01-28T04:50:56;103144.97;;;1.51;79.24
77725;BME280;66892;53.236;6.550;2023-01-28T04:53:22;103141.50;;;1.50;80.31
77725;BME280;66892;53.236;6.550;2023-01-28T04:55:49;103139.09;;;1.53;79.84
77725;BME280;66892;53.236;6.550;2023-01-28T04:58:15;103132.97;;;1.53;80.51
77725;BME280;66892;53.236;6.550;2023-01-28T05:00:41;103132.56;;;1.47;79.91
77725;BME280;66892;53.236;6.550;2023-01-28T05:03:07;103117.69;;;1.46;80.44
77725;BME280;66892;53.236;6.550;2023-01-28T05:05:33;103116.69;;;1.44;80.58
77725;BME280;66892;53.236;6.550;2023-01-28T05:07:59;103129.03;;;1.46;80.80
77725;BME280;66892;53.236;6.550;2023-01-28T05:10:26;103129.59;;;1.54;79.31
77725;BME280;66892;53.236;6.550;2023-01-28T05:12:54;103125.16;;;1.53;79.34
77725;BME280;66892;53.236;6.550;2023-01-28T05:15:20;103123.25;;;1.50;80.12
77725;BME280;66892;53.236;6.550;2023-01-28T05:17:46;103125.03;;;1.51;80.01
77725;BME280;66892;53.236;6.550;2023-01-28T05:20:13;103126.97;;;1.54;79.05
77725;BME280;66892;53.236;6.550;2023-01-28T05:22:40;103125.00;;;1.63;79.33
77725;BME280;66892;53.236;6.550;2023-01-28T05:25:07;103129.88;;;1.58;78.98
77725;BME280;66892;53.236;6.550;2023-01-28T05:27:33;103116.63;;;1.55;79.54
77725;BME280;66892;53.236;6.550;2023-01-28T05:30:01;103113.59;;;1.49;79.63
77725;BME280;66892;53.236;6.550;2023-01-28T05:32:27;103111.69;;;1.47;79.72
77725;BME280;66892;53.236;6.550;2023-01-28T05:34:53;103120.44;;;1.47;79.56
77725;BME280;66892;53.236;6.550;2023-01-28T05:37:19;103123.25;;;1.50;79.13
77725;BME280;66892;53.236;6.550;2023-01-28T05:39:45;103123.03;;;1.47;79.62
77725;BME280;66892;53.236;6.550;2023-01-28T05:42:11;103122.91;;;1.46;79.33
77725;BME280;66892;53.236;6.550;2023-01-28T05:44:37;103120.63;;;1.50;79.18
77725;BME280;66892;53.236;6.550;2023-01-28T05:47:04;103132.44;;;1.45;79.54
77725;BME280;66892;53.236;6.550;2023-01-28T05:49:30;103123.41;;;1.40;80.37
77725;BME280;66892;53.236;6.550;2023-01-28T05:51:56;103113.75;;;1.39;79.45
77725;BME280;66892;53.236;6.550;2023-01-28T05:54:22;103107.19;;;1.44;79.44
77725;BME280;66892;53.236;6.550;2023-01-28T05:56:48;103101.84;;;1.43;80.79
77725;BME280;66892;53.236;6.550;2023-01-28T05:59:14;103107.97;;;1.43;81.16
77725;BME280;66892;53.236;6.550;2023-01-28T06:01:40;103119.31;;;1.44;80.88
77725;BME280;66892;53.236;6.550;2023-01-28T06:04:08;103118.91;;;1.51;79.66
77725;BME280;66892;53.236;6.550;2023-01-28T06:06:34;103123.13;;;1.49;80.76
77725;BME280;66892;53.236;6.550;2023-01-28T06:09:00;103117.91;;;1.49;80.81
77725;BME280;66892;53.236;6.550;2023-01-28T06:11:26;103118.47;;;1.45;81.50
77725;BME280;66892;53.236;6.550;2023-01-28T06:13:52;103130.66;;;1.44;81.12
77725;BME280;66892;53.236;6.550;2023-01-28T06:16:18;103131.66;;;1.46;81.32
77725;BME280;66892;53.236;6.550;2023-01-28T06:18:44;103130.56;;;1.56;80.31
77725;BME280;66892;53.236;6.550;2023-01-28T06:21:12;103137.97;;;1.50;81.21
77725;BME280;66892;53.236;6.550;2023-01-28T06:23:38;103133.56;;;1.49;79.79
77725;BME280;66892;53.236;6.550;2023-01-28T06:26:04;103136.06;;;1.47;80.76
77725;BME280;66892;53.236;6.550;2023-01-28T06:28:30;103141.59;;;1.52;80.95
77725;BME280;66892;53.236;6.550;2023-01-28T06:30:56;103134.13;;;1.45;80.72
77725;BME280;66892;53.236;6.550;2023-01-28T06:33:22;103126.63;;;1.49;80.49
77725;BME280;66892;53.236;6.550;2023-01-28T06:35:49;103128.34;;;1.49;81.02
77725;BME280;66892;53.236;6.550;2023-01-28T06:38:16;103120.66;;;1.39;81.40
77725;BME280;66892;53.236;6.550;2023-01-28T06:40:42;103130.19;;;1.38;81.23
77725;BME280;66892;53.236;6.550;2023-01-28T06:43:08;103133.41;;;1.34;81.84
77725;BME280;66892;53.236;6.550;2023-01-28T06:45:34;103128.53;;;1.27;81.84
77725;BME280;66892;53.236;6.550;2023-01-28T06:48:01;103119.47;;;1.22;81.94
77725;BME280;66892;53.236;6.550;2023-01-28T06:50:27;103118.97;;;1.15;82.36
77725;BME280;66892;53.236;6.550;2023-01-28T06:52:53;103145.59;;;1.11;82.31
77725;BME280;66892;53.236;6.550;2023-01-28T06:55:20;103139.94;;;1.04;82.64
77725;BME280;66892;53.236;6.550;2023-01-28T06:57:46;103147.97;;;1.08;83.09
77725;BME280;66892;53.236;6.550;2023-01-28T07:00:12;103141.72;;;1.17;83.17
77725;BME280;66892;53.236;6.550;2023-01-28T07:02:41;103150.88;;;1.24;82.51
77725;BME280;66892;53.236;6.550;2023-01-28T07:05:07;103162.91;;;1.22;82.51
77725;BME280;66892;53.236;6.550;2023-01-28T07:07:33;103148.16;;;1.22;82.61
77725;BME280;66892;53.236;6.550;2023-01-28T07:09:59;103157.69;;;1.22;83.77
77725;BME280;66892;53.236;6.550;2023-01-28T07:12:27;103153.91;;;1.30;82.06
77725;BME280;66892;53.236;6.550;2023-01-28T07:14:57;103145.19;;;1.29;82.15
77725;BME280;66892;53.236;6.550;2023-01-28T07:17:23;103142.38;;;1.26;82.98
77725;BME280;66892;53.236;6.550;2023-01-28T07:20:08;103144.97;;;1.26;81.54
77725;BME280;66892;53.236;6.550;2023-01-28T07:22:35;103145.41;;;0.96;82.82
77725;BME280;66892;53.236;6.550;2023-01-28T07:25:02;103140.00;;;0.70;84.46
77725;BME280;66892;53.236;6.550;2023-01-28T07:27:30;103143.75;;;0.50;85.92
77725;BME280;66892;53.236;6.550;2023-01-28T07:29:56;103149.28;;;0.31;86.23
77725;BME280;66892;53.236;6.550;2023-01-28T07:32:22;103150.84;;;0.18;86.94
77725;BME280;66892;53.236;6.550;2023-01-28T07:34:48;103161.81;;;0.14;87.82
77725;BME280;66892;53.236;6.550;2023-01-28T07:37:14;103159.78;;;0.10;88.25
77725;BME280;66892;53.236;6.550;2023-01-28T07:39:40;103152.72;;;-0.03;88.25
77725;BME280;66892;53.236;6.550;2023-01-28T07:42:06;103155.69;;;-0.10;88.51
77725;BME280;66892;53.236;6.550;2023-01-28T07:44:34;103150.66;;;-0.19;88.43
77725;BME280;66892;53.236;6.550;2023-01-28T07:47:01;103162.56;;;-0.11;87.98
77725;BME280;66892;53.236;6.550;2023-01-28T07:49:27;103167.91;;;0.03;88.09
77725;BME280;66892;53.236;6.550;2023-01-28T07:51:53;103168.47;;;-0.02;88.34
77725;BME280;66892;53.236;6.550;2023-01-28T07:54:20;103167.53;;;-0.14;89.17
77725;BME280;66892;53.236;6.550;2023-01-28T07:56:46;103175.66;;;-0.09;88.88
77725;BME280;66892;53.236;6.550;2023-01-28T07:59:12;103170.16;;;-0.02;87.48
77725;BME280;66892;53.236;6.550;2023-01-28T08:01:39;103168.25;;;-0.05;87.48
77725;BME280;66892;53.236;6.550;2023-01-28T08:04:05;103175.91;;;-0.06;87.88
77725;BME280;66892;53.236;6.550;2023-01-28T08:06:31;103194.56;;;-0.12;87.84
77725;BME280;66892;53.236;6.550;2023-01-28T08:09:03;103200.00;;;-0.09;87.74
77725;BME280;66892;53.236;6.550;2023-01-28T08:11:30;103188.91;;;-0.06;87.93
77725;BME280;66892;53.236;6.550;2023-01-28T08:13:57;103201.72;;;0.03;86.76
77725;BME280;66892;53.236;6.550;2023-01-28T08:16:23;103207.63;;;0.12;86.65
77725;BME280;66892;53.236;6.550;2023-01-28T08:18:51;103198.06;;;0.34;85.93
77725;BME280;66892;53.236;6.550;2023-01-28T08:21:17;103213.91;;;0.48;85.93
77725;BME280;66892;53.236;6.550;2023-01-28T08:23:43;103218.00;;;0.80;83.79
77725;BME280;66892;53.236;6.550;2023-01-28T08:26:09;103218.66;;;1.00;82.63
77725;BME280;66892;53.236;6.550;2023-01-28T08:28:35;103216.38;;;1.17;82.73
77725;BME280;66892;53.236;6.550;2023-01-28T08:31:01;103222.94;;;1.23;82.69
77725;BME280;66892;53.236;6.550;2023-01-28T08:33:27;103220.03;;;1.19;81.22
77725;BME280;66892;53.236;6.550;2023-01-28T08:35:55;103215.72;;;1.08;81.74
77725;BME280;66892;53.236;6.550;2023-01-28T08:38:21;103220.72;;;1.04;82.25
77725;BME280;66892;53.236;6.550;2023-01-28T08:40:47;103232.16;;;0.95;82.33
77725;BME280;66892;53.236;6.550;2023-01-28T08:43:20;103236.00;;;0.77;82.42
77725;BME280;66892;53.236;6.550;2023-01-28T08:45:46;103242.22;;;0.79;82.92
77725;BME280;66892;53.236;6.550;2023-01-28T08:48:14;103242.69;;;0.73;82.95
77725;BME280;66892;53.236;6.550;2023-01-28T08:50:41;103252.84;;;0.59;83.69
77725;BME280;66892;53.236;6.550;2023-01-28T08:53:11;103248.56;;;0.59;83.63
77725;BME280;66892;53.236;6.550;2023-01-28T08:55:37;103243.72;;;0.64;84.01
77725;BME280;66892;53.236;6.550;2023-01-28T08:58:04;103226.25;;;0.63;84.31
77725;BME280;66892;53.236;6.550;2023-01-28T09:00:31;103234.53;;;0.57;84.46
77725;BME280;66892;53.236;6.550;2023-01-28T09:02:57;103236.44;;;0.60;83.77
77725;BME280;66892;53.236;6.550;2023-01-28T09:05:23;103230.00;;;0.55;83.67
77725;BME280;66892;53.236;6.550;2023-01-28T09:07:49;103234.72;;;0.48;83.92
77725;BME280;66892;53.236;6.550;2023-01-28T09:10:17;103232.72;;;0.56;84.46
77725;BME280;66892;53.236;6.550;2023-01-28T09:12:45;103243.03;;;0.55;83.95
77725;BME280;66892;53.236;6.550;2023-01-28T09:15:11;103238.59;;;0.65;82.80
77725;BME280;66892;53.236;6.550;2023-01-28T09:17:38;103233.75;;;0.70;82.81
77725;BME280;66892;53.236;6.550;2023-01-28T09:20:05;103247.78;;;0.83;82.97
77725;BME280;66892;53.236;6.550;2023-01-28T09:22:32;103237.47;;;1.08;81.77
77725;BME280;66892;53.236;6.550;2023-01-28T09:24:58;103243.66;;;1.33;81.21
77725;BME280;66892;53.236;6.550;2023-01-28T09:27:25;103234.53;;;1.51;80.44
77725;BME280;66892;53.236;6.550;2023-01-28T09:29:51;103230.00;;;1.61;79.91
77725;BME280;66892;53.236;6.550;2023-01-28T09:32:17;103223.25;;;1.76;78.67
77725;BME280;66892;53.236;6.550;2023-01-28T09:34:43;103224.22;;;1.89;78.29
77725;BME280;66892;53.236;6.550;2023-01-28T09:37:09;103222.47;;;1.90;79.36
77725;BME280;66892;53.236;6.550;2023-01-28T09:39:36;103219.91;;;2.03;77.96
77725;BME280;66892;53.236;6.550;2023-01-28T09:42:17;103228.00;;;2.19;77.00
77725;BME280;66892;53.236;6.550;2023-01-28T09:44:59;103232.28;;;2.30;76.72
77725;BME280;66892;53.236;6.550;2023-01-28T09:47:29;103236.91;;;2.34;76.84
77725;BME280;66892;53.236;6.550;2023-01-28T09:49:58;103242.28;;;2.24;77.68
77725;BME280;66892;53.236;6.550;2023-01-28T09:52:25;103235.47;;;2.26;77.59
77725;BME280;66892;53.236;6.550;2023-01-28T09:54:54;103227.53;;;2.38;76.96
77725;BME280;66892;53.236;6.550;2023-01-28T09:57:24;103227.09;;;2.56;76.57
77725;BME280;66892;53.236;6.550;2023-01-28T09:59:52;103235.56;;;2.79;76.16
77725;BME280;66892;53.236;6.550;2023-01-28T10:02:27;103242.50;;;2.91;75.53
77725;BME280;66892;53.236;6.550;2023-01-28T10:04:59;103219.56;;;3.00;74.76
77725;BME280;66892;53.236;6.550;2023-01-28T10:07:33;103213.94;;;3.07;75.51
77725;BME280;66892;53.236;6.550;2023-01-28T10:10:09;103218.25;;;3.20;75.19
77725;BME280;66892;53.236;6.550;2023-01-28T10:13:03;103217.72;;;3.26;74.71
77725;BME280;66892;53.236;6.550;2023-01-28T10:15:46;103205.53;;;3.39;74.51
77725;BME280;66892;53.236;6.550;2023-01-28T10:18:17;103187.69;;;3.47;73.50
77725;BME280;66892;53.236;6.550;2023-01-28T10:20:48;103189.50;;;3.48;73.05
77725;BME280;66892;53.236;6.550;2023-01-28T10:23:18;103175.72;;;3.50;74.51
77725;BME280;66892;53.236;6.550;2023-01-28T10:25:47;103172.97;;;3.62;74.08
77725;BME280;66892;53.236;6.550;2023-01-28T10:28:18;103153.03;;;3.64;73.43
77725;BME280;66892;53.236;6.550;2023-01-28T10:30:47;103157.59;;;3.81;74.07
77725;BME280;66892;53.236;6.550;2023-01-28T10:33:18;103147.75;;;3.92;73.96
77725;BME280;66892;53.236;6.550;2023-01-28T10:35:45;103132.97;;;4.07;73.17
77725;BME280;66892;53.236;6.550;2023-01-28T10:38:14;103136.22;;;4.03;72.30
77725;BME280;66892;53.236;6.550;2023-01-28T10:40:41;103128.19;;;4.14;71.04
77725;BME280;66892;53.236;6.550;2023-01-28T10:43:07;103124.88;;;4.17;70.91
77725;BME280;66892;53.236;6.550;2023-01-28T10:45:39;103121.50;;;4.19;71.20
77725;BME280;66892;53.236;6.550;2023-01-28T10:48:14;103115.19;;;4.16;71.42
77725;BME280;66892;53.236;6.550;2023-01-28T10:50:49;103122.41;;;4.20;72.67
77725;BME280;66892;53.236;6.550;2023-01-28T10:53:15;103125.66;;;4.31;71.49
77725;BME280;66892;53.236;6.550;2023-01-28T10:55:47;103139.19;;;4.38;70.99
77725;BME280;66892;53.236;6.550;2023-01-28T10:58:17;103135.22;;;4.45;72.01
77725;BME280;66892;53.236;6.550;2023-01-28T11:00:51;103132.56;;;4.59;70.65
77725;BME280;66892;53.236;6.550;2023-01-28T11:03:20;103131.88;;;4.62;70.49
77725;BME280;66892;53.236;6.550;2023-01-28T11:05:50;103127.50;;;4.62;70.14
77725;BME280;66892;53.236;6.550;2023-01-28T11:08:18;103142.25;;;4.60;70.26
77725;BME280;66892;53.236;6.550;2023-01-28T11:10:45;103146.44;;;4.42;70.83
77725;BME280;66892;53.236;6.550;2023-01-28T11:13:16;103146.25;;;4.39;71.28
77725;BME280;66892;53.236;6.550;2023-01-28T11:15:47;103151.84;;;4.45;71.07
77725;BME280;66892;53.236;6.550;2023-01-28T11:18:17;103155.91;;;4.55;70.91
77725;BME280;66892;53.236;6.550;2023-01-28T11:20:52;103145.13;;;4.50;70.26
77725;BME280;66892;53.236;6.550;2023-01-28T11:23:23;103154.72;;;4.50;71.03
77725;BME280;66892;53.236;6.550;2023-01-28T11:25:58;103163.22;;;4.46;70.82
77725;BME280;66892;53.236;6.550;2023-01-28T11:28:25;103156.88;;;4.57;71.57
77725;BME280;66892;53.236;6.550;2023-01-28T11:30:55;103150.22;;;4.62;70.13
77725;BME280;66892;53.236;6.550;2023-01-28T11:33:25;103155.56;;;4.79;69.69
77725;BME280;66892;53.236;6.550;2023-01-28T11:35:57;103148.34;;;4.75;69.39
77725;BME280;66892;53.236;6.550;2023-01-28T11:38:28;103144.13;;;4.77;70.33
77725;BME280;66892;53.236;6.550;2023-01-28T11:40:56;103142.56;;;4.81;70.79
77725;BME280;66892;53.236;6.550;2023-01-28T11:43:24;103143.66;;;4.70;70.82
77725;BME280;66892;53.236;6.550;2023-01-28T11:45:57;103143.22;;;4.77;70.33
77725;BME280;66892;53.236;6.550;2023-01-28T11:48:33;103135.06;;;4.72;70.07
77725;BME280;66892;53.236;6.550;2023-01-28T11:51:23;103128.50;;;4.64;70.87
77725;BME280;66892;53.236;6.550;2023-01-28T11:54:04;103124.63;;;4.58;71.86
77725;BME280;66892;53.236;6.550;2023-01-28T11:56:52;103110.34;;;4.53;71.38
77725;BME280;66892;53.236;6.550;2023-01-28T11:59:31;103105.31;;;4.56;71.43
77725;BME280;66892;53.236;6.550;2023-01-28T12:02:08;103114.59;;;4.51;71.63
77725;BME280;66892;53.236;6.550;2023-01-28T12:04:49;103119.59;;;4.46;71.54
77725;BME280;66892;53.236;6.550;2023-01-28T12:07:29;103115.53;;;4.37;72.00
77725;BME280;66892;53.236;6.550;2023-01-28T12:10:02;103117.44;;;4.24;72.89
77725;BME280;66892;53.236;6.550;2023-01-28T12:12:43;103113.31;;;4.13;72.77
77725;BME280;66892;53.236;6.550;2023-01-28T12:15:24;103110.09;;;4.34;72.51
77725;BME280;66892;53.236;6.550;2023-01-28T12:18:07;103105.03;;;4.37;72.16
77725;BME280;66892;53.236;6.550;2023-01-28T12:20:41;103107.75;;;4.38;71.23
77725;BME280;66892;53.236;6.550;2023-01-28T12:23:34;103089.44;;;4.09;72.34
77725;BME280;66892;53.236;6.550;2023-01-28T12:26:08;103064.81;;;3.76;74.65
77725;BME280;66892;53.236;6.550;2023-01-28T12:28:51;103068.47;;;3.50;75.53
77725;BME280;66892;53.236;6.550;2023-01-28T12:31:36;103062.63;;;3.40;76.32
77725;BME280;66892;53.236;6.550;2023-01-28T12:34:29;103071.50;;;3.29;76.51
77725;BME280;66892;53.236;6.550;2023-01-28T12:37:03;103072.59;;;3.32;76.96
77725;BME280;66892;53.236;6.550;2023-01-28T12:39:43;103089.06;;;3.31;75.81
77725;BME280;66892;53.236;6.550;2023-01-28T12:42:17;103089.19;;;3.33;76.42
77725;BME280;66892;53.236;6.550;2023-01-28T12:44:48;103090.34;;;3.23;77.12
77725;BME280;66892;53.236;6.550;2023-01-28T12:47:20;103096.09;;;3.17;77.87
77725;BME280;66892;53.236;6.550;2023-01-28T12:49:52;103089.44;;;3.23;77.86
77725;BME280;66892;53.236;6.550;2023-01-28T12:52:20;103076.91;;;3.32;76.60
77725;BME280;66892;53.236;6.550;2023-01-28T12:54:58;103085.59;;;3.31;76.82
77725;BME280;66892;53.236;6.550;2023-01-28T12:57:27;103077.94;;;3.34;77.37
77725;BME280;66892;53.236;6.550;2023-01-28T13:00:14;103093.09;;;3.39;76.31
77725;BME280;66892;53.236;6.550;2023-01-28T13:02:46;103095.66;;;3.52;76.38
77725;BME280;66892;53.236;6.550;2023-01-28T13:05:16;103077.81;;;3.89;75.72
77725;BME280;66892;53.236;6.550;2023-01-28T13:07:48;103080.88;;;4.26;74.32
77725;BME280;66892;53.236;6.550;2023-01-28T13:10:24;103077.47;;;4.43;73.18
77725;BME280;66892;53.236;6.550;2023-01-28T13:12:52;103071.59;;;4.62;72.66
77725;BME280;66892;53.236;6.550;2023-01-28T13:15:19;103075.28;;;4.65;72.01
77725;BME280;66892;53.236;6.550;2023-01-28T13:17:54;103061.69;;;4.72;72.57